sensor_id;sensor_type;location;lat;lon;timestamp;P1;durP1;ratioP1;P2;durP2;ratioP2
64932;SDS011;51446;53.850;10.662;2022-12-22T00:01:14;38.70;;;19.38;;
64932;SDS011;51446;53.850;10.662;2022-12-22T00:03:58;38.72;;;18.67;;
64932;SDS011;51446;53.850;10.662;2022-12-22T00:06:42;40.23;;;19.27;;
64932;SDS011;51446;53.850;10.662;2022-12-22T00:09:26;40.42;;;19.67;;
64932;SDS011;51446;53.850;10.662;2022-12-22T00:12:11;40.25;;;19.48;;
64932;SDS011;51446;53.850;10.662;2022-12-22T00:14:56;42.08;;;19.73;;
64932;SDS011;51446;53.850;10.662;2022-12-22T00:17:40;41.90;;;19.23;;
64932;SDS011;51446;53.850;10.662;2022-12-22T00:20:24;40.63;;;18.53;;
64932;SDS011;51446;53.850;10.662;2022-12-22T00:23:08;45.38;;;18.17;;
64932;SDS011;51446;53.850;10.662;2022-12-22T00:25:53;46.15;;;18.27;;
64932;SDS011;51446;53.850;10.662;2022-12-22T00:28:38;36.65;;;18.63;;
64932;SDS011;51446;53.850;10.662;2022-12-22T00:31:22;41.35;;;19.08;;
64932;SDS011;51446;53.850;10.662;2022-12-22T00:34:24;39.30;;;18.23;;
64932;SDS011;51446;53.850;10.662;2022-12-22T00:37:13;34.15;;;18.02;;
64932;SDS011;51446;53.850;10.662;2022-12-22T00:40:00;41.38;;;19.38;;
64932;SDS011;51446;53.850;10.662;2022-12-22T00:42:44;39.05;;;19.35;;
64932;SDS011;51446;53.850;10.662;2022-12-22T00:45:28;43.13;;;18.45;;
64932;SDS011;51446;53.850;10.662;2022-12-22T00:48:23;43.30;;;19.20;;
64932;SDS011;51446;53.850;10.662;2022-12-22T00:51:09;39.72;;;19.65;;
64932;SDS011;51446;53.850;10.662;2022-12-22T00:53:54;33.15;;;16.75;;
64932;SDS011;51446;53.850;10.662;2022-12-22T00:56:38;39.95;;;18.92;;
64932;SDS011;51446;53.850;10.662;2022-12-22T00:59:22;34.95;;;18.60;;
64932;SDS011;51446;53.850;10.662;2022-12-22T01:02:06;35.20;;;16.77;;
64932;SDS011;51446;53.850;10.662;2022-12-22T01:04:50;33.03;;;16.58;;
64932;SDS011;51446;53.850;10.662;2022-12-22T01:07:34;33.45;;;15.25;;
64932;SDS011;51446;53.850;10.662;2022-12-22T01:10:19;38.83;;;17.17;;
64932;SDS011;51446;53.850;10.662;2022-12-22T01:13:12;38.60;;;17.10;;
64932;SDS011;51446;53.850;10.662;2022-12-22T01:15:57;31.93;;;15.63;;
64932;SDS011;51446;53.850;10.662;2022-12-22T01:18:41;35.75;;;15.60;;
64932;SDS011;51446;53.850;10.662;2022-12-22T01:21:25;37.70;;;16.98;;
64932;SDS011;51446;53.850;10.662;2022-12-22T01:24:11;32.63;;;16.95;;
64932;SDS011;51446;53.850;10.662;2022-12-22T01:26:56;32.40;;;15.55;;
64932;SDS011;51446;53.850;10.662;2022-12-22T01:29:41;38.30;;;16.50;;
64932;SDS011;51446;53.850;10.662;2022-12-22T01:32:25;36.30;;;16.92;;
64932;SDS011;51446;53.850;10.662;2022-12-22T01:35:14;35.90;;;15.55;;
64932;SDS011;51446;53.850;10.662;2022-12-22T01:38:01;28.65;;;14.18;;
64932;SDS011;51446;53.850;10.662;2022-12-22T01:40:45;38.78;;;17.00;;
64932;SDS011;51446;53.850;10.662;2022-12-22T01:43:30;35.87;;;16.47;;
64932;SDS011;51446;53.850;10.662;2022-12-22T01:46:18;30.75;;;15.95;;
64932;SDS011;51446;53.850;10.662;2022-12-22T01:49:10;31.45;;;15.43;;
64932;SDS011;51446;53.850;10.662;2022-12-22T01:51:57;31.10;;;15.18;;
64932;SDS011;51446;53.850;10.662;2022-12-22T01:54:41;34.50;;;17.77;;
64932;SDS011;51446;53.850;10.662;2022-12-22T01:57:26;30.27;;;15.25;;
64932;SDS011;51446;53.850;10.662;2022-12-22T02:00:11;30.50;;;14.88;;
64932;SDS011;51446;53.850;10.662;2022-12-22T02:02:55;31.13;;;16.13;;
64932;SDS011;51446;53.850;10.662;2022-12-22T02:05:42;30.23;;;15.35;;
64932;SDS011;51446;53.850;10.662;2022-12-22T02:08:40;29.73;;;14.70;;
64932;SDS011;51446;53.850;10.662;2022-12-22T02:14:20;33.65;;;15.40;;
64932;SDS011;51446;53.850;10.662;2022-12-22T02:17:26;30.90;;;15.13;;
64932;SDS011;51446;53.850;10.662;2022-12-22T02:20:28;30.23;;;15.88;;
64932;SDS011;51446;53.850;10.662;2022-12-22T02:26:33;29.20;;;13.82;;
64932;SDS011;51446;53.850;10.662;2022-12-22T02:29:21;30.30;;;14.20;;
64932;SDS011;51446;53.850;10.662;2022-12-22T02:32:10;34.17;;;15.93;;
64932;SDS011;51446;53.850;10.662;2022-12-22T02:34:54;31.00;;;15.20;;
64932;SDS011;51446;53.850;10.662;2022-12-22T02:37:40;30.30;;;15.53;;
64932;SDS011;51446;53.850;10.662;2022-12-22T02:44:27;29.70;;;15.10;;
64932;SDS011;51446;53.850;10.662;2022-12-22T02:47:39;30.20;;;15.25;;
64932;SDS011;51446;53.850;10.662;2022-12-22T02:50:29;30.42;;;14.27;;
64932;SDS011;51446;53.850;10.662;2022-12-22T02:53:19;27.83;;;14.57;;
64932;SDS011;51446;53.850;10.662;2022-12-22T02:56:06;30.02;;;14.70;;
64932;SDS011;51446;53.850;10.662;2022-12-22T02:58:52;32.13;;;14.80;;
64932;SDS011;51446;53.850;10.662;2022-12-22T03:01:36;26.33;;;14.15;;
64932;SDS011;51446;53.850;10.662;2022-12-22T03:04:22;32.30;;;14.48;;
64932;SDS011;51446;53.850;10.662;2022-12-22T03:07:06;34.10;;;14.93;;
64932;SDS011;51446;53.850;10.662;2022-12-22T03:09:50;28.75;;;15.75;;
64932;SDS011;51446;53.850;10.662;2022-12-22T03:12:34;26.88;;;14.18;;
64932;SDS011;51446;53.850;10.662;2022-12-22T03:15:18;25.48;;;13.80;;
64932;SDS011;51446;53.850;10.662;2022-12-22T03:18:02;26.17;;;14.27;;
64932;SDS011;51446;53.850;10.662;2022-12-22T03:20:48;29.50;;;14.53;;
64932;SDS011;51446;53.850;10.662;2022-12-22T03:23:32;30.20;;;15.50;;
64932;SDS011;51446;53.850;10.662;2022-12-22T03:26:16;29.10;;;14.32;;
64932;SDS011;51446;53.850;10.662;2022-12-22T03:28:41;28.03;;;14.50;;
64932;SDS011;51446;53.850;10.662;2022-12-22T03:31:06;29.57;;;15.30;;
64932;SDS011;51446;53.850;10.662;2022-12-22T03:33:32;35.17;;;16.02;;
64932;SDS011;51446;53.850;10.662;2022-12-22T03:35:57;31.58;;;14.38;;
64932;SDS011;51446;53.850;10.662;2022-12-22T03:38:23;29.92;;;15.15;;
64932;SDS011;51446;53.850;10.662;2022-12-22T03:40:49;32.37;;;15.33;;
64932;SDS011;51446;53.850;10.662;2022-12-22T03:43:14;33.23;;;16.23;;
64932;SDS011;51446;53.850;10.662;2022-12-22T03:45:59;29.48;;;14.85;;
64932;SDS011;51446;53.850;10.662;2022-12-22T03:48:44;31.63;;;14.53;;
64932;SDS011;51446;53.850;10.662;2022-12-22T03:51:29;27.17;;;14.57;;
64932;SDS011;51446;53.850;10.662;2022-12-22T03:53:54;34.10;;;15.00;;
64932;SDS011;51446;53.850;10.662;2022-12-22T03:56:20;32.93;;;14.80;;
64932;SDS011;51446;53.850;10.662;2022-12-22T03:58:45;29.03;;;14.77;;
64932;SDS011;51446;53.850;10.662;2022-12-22T04:01:10;30.93;;;15.20;;
64932;SDS011;51446;53.850;10.662;2022-12-22T04:03:35;30.53;;;14.40;;
64932;SDS011;51446;53.850;10.662;2022-12-22T04:06:01;29.50;;;14.57;;
64932;SDS011;51446;53.850;10.662;2022-12-22T04:08:26;27.90;;;13.97;;
64932;SDS011;51446;53.850;10.662;2022-12-22T04:10:51;28.25;;;13.85;;
64932;SDS011;51446;53.850;10.662;2022-12-22T04:13:35;33.57;;;14.70;;
64932;SDS011;51446;53.850;10.662;2022-12-22T04:16:00;34.67;;;14.33;;
64932;SDS011;51446;53.850;10.662;2022-12-22T04:18:26;28.77;;;14.47;;
64932;SDS011;51446;53.850;10.662;2022-12-22T04:20:51;28.67;;;14.00;;
64932;SDS011;51446;53.850;10.662;2022-12-22T04:23:16;29.30;;;14.07;;
64932;SDS011;51446;53.850;10.662;2022-12-22T04:25:41;24.40;;;13.37;;
64932;SDS011;51446;53.850;10.662;2022-12-22T04:28:07;24.27;;;13.37;;
64932;SDS011;51446;53.850;10.662;2022-12-22T04:30:32;25.93;;;13.47;;
64932;SDS011;51446;53.850;10.662;2022-12-22T04:32:57;23.88;;;12.80;;
64932;SDS011;51446;53.850;10.662;2022-12-22T04:35:22;27.83;;;13.32;;
64932;SDS011;51446;53.850;10.662;2022-12-22T04:37:48;27.80;;;13.93;;
64932;SDS011;51446;53.850;10.662;2022-12-22T04:40:13;23.67;;;12.30;;
64932;SDS011;51446;53.850;10.662;2022-12-22T04:42:38;27.07;;;12.57;;
64932;SDS011;51446;53.850;10.662;2022-12-22T04:45:04;21.40;;;12.27;;
64932;SDS011;51446;53.850;10.662;2022-12-22T04:47:35;23.67;;;12.07;;
64932;SDS011;51446;53.850;10.662;2022-12-22T04:50:00;21.17;;;12.30;;
64932;SDS011;51446;53.850;10.662;2022-12-22T04:52:26;20.90;;;11.80;;
64932;SDS011;51446;53.850;10.662;2022-12-22T04:54:51;21.17;;;12.07;;
64932;SDS011;51446;53.850;10.662;2022-12-22T04:57:16;20.97;;;11.80;;
64932;SDS011;51446;53.850;10.662;2022-12-22T04:59:44;22.43;;;11.67;;
64932;SDS011;51446;53.850;10.662;2022-12-22T05:02:10;19.08;;;11.65;;
64932;SDS011;51446;53.850;10.662;2022-12-22T05:04:35;20.83;;;11.40;;
64932;SDS011;51446;53.850;10.662;2022-12-22T05:07:00;22.40;;;11.80;;
64932;SDS011;51446;53.850;10.662;2022-12-22T05:09:26;18.73;;;11.13;;
64932;SDS011;51446;53.850;10.662;2022-12-22T05:11:51;18.33;;;11.83;;
64932;SDS011;51446;53.850;10.662;2022-12-22T05:14:16;16.37;;;11.03;;
64932;SDS011;51446;53.850;10.662;2022-12-22T05:16:41;20.37;;;11.33;;
64932;SDS011;51446;53.850;10.662;2022-12-22T05:19:07;23.47;;;11.83;;
64932;SDS011;51446;53.850;10.662;2022-12-22T05:21:32;21.53;;;11.60;;
64932;SDS011;51446;53.850;10.662;2022-12-22T05:23:57;27.57;;;11.50;;
64932;SDS011;51446;53.850;10.662;2022-12-22T05:26:22;17.77;;;11.30;;
64932;SDS011;51446;53.850;10.662;2022-12-22T05:28:48;20.67;;;12.37;;
64932;SDS011;51446;53.850;10.662;2022-12-22T05:31:17;18.80;;;11.43;;
64932;SDS011;51446;53.850;10.662;2022-12-22T05:33:47;18.77;;;11.27;;
64932;SDS011;51446;53.850;10.662;2022-12-22T05:36:13;18.60;;;11.60;;
64932;SDS011;51446;53.850;10.662;2022-12-22T05:38:39;20.30;;;12.07;;
64932;SDS011;51446;53.850;10.662;2022-12-22T05:41:04;20.20;;;11.90;;
64932;SDS011;51446;53.850;10.662;2022-12-22T05:43:31;21.55;;;12.40;;
64932;SDS011;51446;53.850;10.662;2022-12-22T05:45:59;24.77;;;12.73;;
64932;SDS011;51446;53.850;10.662;2022-12-22T05:48:25;22.25;;;12.00;;
64932;SDS011;51446;53.850;10.662;2022-12-22T05:50:51;19.97;;;12.20;;
64932;SDS011;51446;53.850;10.662;2022-12-22T05:53:16;19.13;;;12.07;;
64932;SDS011;51446;53.850;10.662;2022-12-22T05:55:41;28.03;;;12.67;;
64932;SDS011;51446;53.850;10.662;2022-12-22T05:58:07;19.13;;;12.00;;
64932;SDS011;51446;53.850;10.662;2022-12-22T06:00:32;19.57;;;11.87;;
64932;SDS011;51446;53.850;10.662;2022-12-22T06:02:57;19.90;;;12.50;;
64932;SDS011;51446;53.850;10.662;2022-12-22T06:05:23;19.60;;;12.33;;
64932;SDS011;51446;53.850;10.662;2022-12-22T06:07:48;19.77;;;12.63;;
64932;SDS011;51446;53.850;10.662;2022-12-22T06:10:14;21.20;;;12.83;;
64932;SDS011;51446;53.850;10.662;2022-12-22T06:12:39;21.90;;;12.37;;
64932;SDS011;51446;53.850;10.662;2022-12-22T06:15:06;21.40;;;12.57;;
64932;SDS011;51446;53.850;10.662;2022-12-22T06:17:32;20.13;;;12.30;;
64932;SDS011;51446;53.850;10.662;2022-12-22T06:19:57;20.70;;;12.20;;
64932;SDS011;51446;53.850;10.662;2022-12-22T06:22:23;19.77;;;11.77;;
64932;SDS011;51446;53.850;10.662;2022-12-22T06:24:48;23.10;;;12.47;;
64932;SDS011;51446;53.850;10.662;2022-12-22T06:27:13;20.27;;;12.43;;
64932;SDS011;51446;53.850;10.662;2022-12-22T06:29:38;20.60;;;13.00;;
64932;SDS011;51446;53.850;10.662;2022-12-22T06:32:04;20.80;;;12.50;;
64932;SDS011;51446;53.850;10.662;2022-12-22T06:34:29;23.07;;;12.37;;
64932;SDS011;51446;53.850;10.662;2022-12-22T06:36:54;21.70;;;13.30;;
64932;SDS011;51446;53.850;10.662;2022-12-22T06:39:20;22.47;;;12.43;;
64932;SDS011;51446;53.850;10.662;2022-12-22T06:41:45;22.97;;;13.10;;
64932;SDS011;51446;53.850;10.662;2022-12-22T06:44:29;19.88;;;12.60;;
64932;SDS011;51446;53.850;10.662;2022-12-22T06:46:54;25.17;;;13.03;;
64932;SDS011;51446;53.850;10.662;2022-12-22T06:49:20;22.50;;;12.33;;
64932;SDS011;51446;53.850;10.662;2022-12-22T06:51:46;21.70;;;12.40;;
64932;SDS011;51446;53.850;10.662;2022-12-22T06:54:11;20.20;;;12.83;;
64932;SDS011;51446;53.850;10.662;2022-12-22T06:56:38;24.65;;;13.38;;
64932;SDS011;51446;53.850;10.662;2022-12-22T06:59:03;27.30;;;14.50;;
64932;SDS011;51446;53.850;10.662;2022-12-22T07:01:28;21.47;;;13.07;;
64932;SDS011;51446;53.850;10.662;2022-12-22T07:03:55;22.42;;;13.18;;
64932;SDS011;51446;53.850;10.662;2022-12-22T07:06:20;24.80;;;13.30;;
64932;SDS011;51446;53.850;10.662;2022-12-22T07:08:46;22.37;;;12.40;;
64932;SDS011;51446;53.850;10.662;2022-12-22T07:11:12;24.05;;;13.02;;
64932;SDS011;51446;53.850;10.662;2022-12-22T07:13:38;24.48;;;13.63;;
64932;SDS011;51446;53.850;10.662;2022-12-22T07:16:04;23.00;;;14.10;;
64932;SDS011;51446;53.850;10.662;2022-12-22T07:18:35;24.42;;;13.20;;
64932;SDS011;51446;53.850;10.662;2022-12-22T07:21:03;24.67;;;13.90;;
64932;SDS011;51446;53.850;10.662;2022-12-22T07:23:31;25.77;;;14.13;;
64932;SDS011;51446;53.850;10.662;2022-12-22T07:25:56;23.88;;;14.05;;
64932;SDS011;51446;53.850;10.662;2022-12-22T07:28:22;23.92;;;14.07;;
64932;SDS011;51446;53.850;10.662;2022-12-22T07:30:48;31.63;;;14.37;;
64932;SDS011;51446;53.850;10.662;2022-12-22T07:33:15;24.25;;;13.85;;
64932;SDS011;51446;53.850;10.662;2022-12-22T07:35:40;28.73;;;15.30;;
64932;SDS011;51446;53.850;10.662;2022-12-22T07:38:05;30.37;;;14.87;;
64932;SDS011;51446;53.850;10.662;2022-12-22T07:40:30;27.77;;;14.87;;
64932;SDS011;51446;53.850;10.662;2022-12-22T07:42:56;25.57;;;14.20;;
64932;SDS011;51446;53.850;10.662;2022-12-22T07:45:22;25.33;;;14.73;;
64932;SDS011;51446;53.850;10.662;2022-12-22T07:47:47;27.70;;;14.63;;
64932;SDS011;51446;53.850;10.662;2022-12-22T07:50:15;27.17;;;14.52;;
64932;SDS011;51446;53.850;10.662;2022-12-22T07:53:00;26.95;;;14.43;;
64932;SDS011;51446;53.850;10.662;2022-12-22T07:55:28;28.65;;;14.98;;
64932;SDS011;51446;53.850;10.662;2022-12-22T07:57:55;26.42;;;15.25;;
64932;SDS011;51446;53.850;10.662;2022-12-22T08:00:21;27.23;;;14.60;;
64932;SDS011;51446;53.850;10.662;2022-12-22T08:02:51;26.38;;;13.80;;
64932;SDS011;51446;53.850;10.662;2022-12-22T08:05:18;29.88;;;14.68;;
64932;SDS011;51446;53.850;10.662;2022-12-22T08:07:43;31.13;;;15.97;;
64932;SDS011;51446;53.850;10.662;2022-12-22T08:10:10;29.05;;;15.18;;
64932;SDS011;51446;53.850;10.662;2022-12-22T08:12:36;33.30;;;15.10;;
64932;SDS011;51446;53.850;10.662;2022-12-22T08:15:01;26.63;;;15.00;;
64932;SDS011;51446;53.850;10.662;2022-12-22T08:17:27;27.95;;;15.32;;
64932;SDS011;51446;53.850;10.662;2022-12-22T08:19:53;28.07;;;14.20;;
64932;SDS011;51446;53.850;10.662;2022-12-22T08:22:19;22.83;;;14.45;;
64932;SDS011;51446;53.850;10.662;2022-12-22T08:24:48;25.92;;;14.48;;
64932;SDS011;51446;53.850;10.662;2022-12-22T08:27:14;26.23;;;14.80;;
64932;SDS011;51446;53.850;10.662;2022-12-22T08:29:45;27.23;;;15.23;;
64932;SDS011;51446;53.850;10.662;2022-12-22T08:32:13;27.25;;;14.93;;
64932;SDS011;51446;53.850;10.662;2022-12-22T08:34:39;27.70;;;14.45;;
64932;SDS011;51446;53.850;10.662;2022-12-22T08:37:05;24.47;;;13.90;;
64932;SDS011;51446;53.850;10.662;2022-12-22T08:39:34;25.33;;;14.75;;
64932;SDS011;51446;53.850;10.662;2022-12-22T08:42:04;24.38;;;13.70;;
64932;SDS011;51446;53.850;10.662;2022-12-22T08:44:32;22.95;;;13.80;;
64932;SDS011;51446;53.850;10.662;2022-12-22T08:46:58;28.00;;;15.40;;
64932;SDS011;51446;53.850;10.662;2022-12-22T08:49:24;23.40;;;13.43;;
64932;SDS011;51446;53.850;10.662;2022-12-22T08:51:50;26.20;;;14.90;;
64932;SDS011;51446;53.850;10.662;2022-12-22T08:54:16;27.30;;;14.77;;
64932;SDS011;51446;53.850;10.662;2022-12-22T08:56:42;24.10;;;14.10;;
64932;SDS011;51446;53.850;10.662;2022-12-22T08:59:07;23.67;;;14.23;;
64932;SDS011;51446;53.850;10.662;2022-12-22T09:01:34;26.70;;;14.37;;
64932;SDS011;51446;53.850;10.662;2022-12-22T09:04:01;24.42;;;14.05;;
64932;SDS011;51446;53.850;10.662;2022-12-22T09:06:27;25.75;;;13.93;;
64932;SDS011;51446;53.850;10.662;2022-12-22T09:09:01;26.50;;;14.48;;
64932;SDS011;51446;53.850;10.662;2022-12-22T09:11:29;27.42;;;14.30;;
64932;SDS011;51446;53.850;10.662;2022-12-22T09:13:55;24.83;;;13.63;;
64932;SDS011;51446;53.850;10.662;2022-12-22T09:16:24;24.35;;;13.57;;
64932;SDS011;51446;53.850;10.662;2022-12-22T09:18:51;25.65;;;14.60;;
64932;SDS011;51446;53.850;10.662;2022-12-22T09:21:17;27.00;;;14.90;;
64932;SDS011;51446;53.850;10.662;2022-12-22T09:23:42;25.77;;;14.02;;
64932;SDS011;51446;53.850;10.662;2022-12-22T09:26:09;24.37;;;12.73;;
64932;SDS011;51446;53.850;10.662;2022-12-22T09:28:36;28.08;;;14.13;;
64932;SDS011;51446;53.850;10.662;2022-12-22T09:31:03;22.52;;;13.70;;
64932;SDS011;51446;53.850;10.662;2022-12-22T09:33:29;26.02;;;14.10;;
64932;SDS011;51446;53.850;10.662;2022-12-22T09:35:54;23.00;;;13.00;;
64932;SDS011;51446;53.850;10.662;2022-12-22T09:38:20;27.20;;;13.83;;
64932;SDS011;51446;53.850;10.662;2022-12-22T09:40:45;30.10;;;14.43;;
64932;SDS011;51446;53.850;10.662;2022-12-22T09:43:14;27.17;;;13.80;;
64932;SDS011;51446;53.850;10.662;2022-12-22T09:45:41;24.75;;;13.10;;
64932;SDS011;51446;53.850;10.662;2022-12-22T09:48:12;24.58;;;13.35;;
64932;SDS011;51446;53.850;10.662;2022-12-22T09:50:39;26.48;;;14.05;;
64932;SDS011;51446;53.850;10.662;2022-12-22T09:53:06;25.38;;;13.45;;
64932;SDS011;51446;53.850;10.662;2022-12-22T09:55:40;24.50;;;13.60;;
64932;SDS011;51446;53.850;10.662;2022-12-22T09:58:27;27.95;;;14.70;;
64932;SDS011;51446;53.850;10.662;2022-12-22T10:00:59;24.88;;;13.43;;
64932;SDS011;51446;53.850;10.662;2022-12-22T10:06:19;24.35;;;13.75;;
64932;SDS011;51446;53.850;10.662;2022-12-22T10:08:48;23.93;;;12.90;;
64932;SDS011;51446;53.850;10.662;2022-12-22T10:11:14;22.50;;;12.57;;
64932;SDS011;51446;53.850;10.662;2022-12-22T10:13:41;22.52;;;12.93;;
64932;SDS011;51446;53.850;10.662;2022-12-22T10:18:53;20.17;;;12.40;;
64932;SDS011;51446;53.850;10.662;2022-12-22T10:21:22;20.65;;;12.57;;
64932;SDS011;51446;53.850;10.662;2022-12-22T10:23:47;18.70;;;11.13;;
64932;SDS011;51446;53.850;10.662;2022-12-22T10:26:23;21.08;;;11.75;;
64932;SDS011;51446;53.850;10.662;2022-12-22T10:28:59;19.07;;;11.47;;
64932;SDS011;51446;53.850;10.662;2022-12-22T10:31:30;16.77;;;10.50;;
64932;SDS011;51446;53.850;10.662;2022-12-22T10:34:14;19.15;;;11.77;;
64932;SDS011;51446;53.850;10.662;2022-12-22T10:36:46;17.85;;;11.02;;
64932;SDS011;51446;53.850;10.662;2022-12-22T10:39:17;19.88;;;11.60;;
64932;SDS011;51446;53.850;10.662;2022-12-22T10:41:48;17.47;;;10.67;;
64932;SDS011;51446;53.850;10.662;2022-12-22T10:51:34;16.48;;;10.15;;
64932;SDS011;51446;53.850;10.662;2022-12-22T10:53:59;18.93;;;10.70;;
64932;SDS011;51446;53.850;10.662;2022-12-22T10:56:26;18.30;;;11.67;;
64932;SDS011;51446;53.850;10.662;2022-12-22T10:58:53;19.95;;;11.93;;
64932;SDS011;51446;53.850;10.662;2022-12-22T11:01:25;18.05;;;10.55;;
64932;SDS011;51446;53.850;10.662;2022-12-22T11:03:56;18.27;;;11.45;;
64932;SDS011;51446;53.850;10.662;2022-12-22T11:06:22;18.30;;;10.63;;
64932;SDS011;51446;53.850;10.662;2022-12-22T11:08:48;19.75;;;11.55;;
64932;SDS011;51446;53.850;10.662;2022-12-22T11:16:50;21.77;;;12.90;;
64932;SDS011;51446;53.850;10.662;2022-12-22T11:19:30;20.03;;;12.00;;
64932;SDS011;51446;53.850;10.662;2022-12-22T11:24:59;23.15;;;14.57;;
64932;SDS011;51446;53.850;10.662;2022-12-22T11:36:44;20.30;;;11.90;;
64932;SDS011;51446;53.850;10.662;2022-12-22T11:39:07;15.75;;;11.00;;
64932;SDS011;51446;53.850;10.662;2022-12-22T11:41:52;17.65;;;11.27;;
64932;SDS011;51446;53.850;10.662;2022-12-22T11:44:39;19.17;;;12.82;;
64932;SDS011;51446;53.850;10.662;2022-12-22T11:47:19;16.67;;;11.00;;
64932;SDS011;51446;53.850;10.662;2022-12-22T11:52:54;18.33;;;10.90;;
64932;SDS011;51446;53.850;10.662;2022-12-22T11:55:41;16.70;;;11.57;;
64932;SDS011;51446;53.850;10.662;2022-12-22T12:00:53;18.83;;;11.33;;
64932;SDS011;51446;53.850;10.662;2022-12-22T12:06:20;16.80;;;11.27;;
64932;SDS011;51446;53.850;10.662;2022-12-22T12:13:52;19.70;;;11.23;;
64932;SDS011;51446;53.850;10.662;2022-12-22T12:21:51;18.60;;;12.07;;
64932;SDS011;51446;53.850;10.662;2022-12-22T12:27:23;21.73;;;14.10;;
64932;SDS011;51446;53.850;10.662;2022-12-22T12:30:03;23.42;;;12.82;;
64932;SDS011;51446;53.850;10.662;2022-12-22T12:32:37;19.70;;;12.68;;
64932;SDS011;51446;53.850;10.662;2022-12-22T12:37:56;23.27;;;13.55;;
64932;SDS011;51446;53.850;10.662;2022-12-22T12:40:34;21.40;;;12.23;;
64932;SDS011;51446;53.850;10.662;2022-12-22T12:43:14;22.95;;;13.80;;
64932;SDS011;51446;53.850;10.662;2022-12-22T12:45:42;20.00;;;12.15;;
64932;SDS011;51446;53.850;10.662;2022-12-22T12:50:44;19.10;;;11.07;;
64932;SDS011;51446;53.850;10.662;2022-12-22T12:53:09;20.13;;;11.53;;
64932;SDS011;51446;53.850;10.662;2022-12-22T12:58:03;22.17;;;11.45;;
64932;SDS011;51446;53.850;10.662;2022-12-22T13:03:02;20.27;;;11.45;;
64932;SDS011;51446;53.850;10.662;2022-12-22T13:05:30;22.08;;;12.77;;
64932;SDS011;51446;53.850;10.662;2022-12-22T13:23:45;21.48;;;12.00;;
64932;SDS011;51446;53.850;10.662;2022-12-22T13:26:33;19.40;;;12.33;;
64932;SDS011;51446;53.850;10.662;2022-12-22T13:31:41;17.50;;;10.73;;
64932;SDS011;51446;53.850;10.662;2022-12-22T13:37:00;18.95;;;10.45;;
64932;SDS011;51446;53.850;10.662;2022-12-22T13:39:34;15.03;;;10.13;;
64932;SDS011;51446;53.850;10.662;2022-12-22T13:42:02;15.00;;;10.27;;
64932;SDS011;51446;53.850;10.662;2022-12-22T13:44:30;15.82;;;10.48;;
64932;SDS011;51446;53.850;10.662;2022-12-22T13:47:05;17.65;;;10.13;;
64932;SDS011;51446;53.850;10.662;2022-12-22T13:49:35;25.70;;;11.23;;
64932;SDS011;51446;53.850;10.662;2022-12-22T13:52:01;23.33;;;11.07;;
64932;SDS011;51446;53.850;10.662;2022-12-22T13:54:34;17.05;;;9.70;;
64932;SDS011;51446;53.850;10.662;2022-12-22T13:57:02;18.08;;;9.82;;
64932;SDS011;51446;53.850;10.662;2022-12-22T13:59:41;18.80;;;9.67;;
64932;SDS011;51446;53.850;10.662;2022-12-22T14:04:34;18.37;;;10.90;;
64932;SDS011;51446;53.850;10.662;2022-12-22T14:07:13;15.38;;;10.20;;
64932;SDS011;51446;53.850;10.662;2022-12-22T14:09:42;16.60;;;9.98;;
64932;SDS011;51446;53.850;10.662;2022-12-22T14:12:12;20.10;;;10.48;;
64932;SDS011;51446;53.850;10.662;2022-12-22T14:14:41;18.97;;;11.03;;
64932;SDS011;51446;53.850;10.662;2022-12-22T14:20:00;18.13;;;10.95;;
64932;SDS011;51446;53.850;10.662;2022-12-22T14:22:37;21.15;;;10.63;;
64932;SDS011;51446;53.850;10.662;2022-12-22T14:25:13;22.40;;;11.00;;
64932;SDS011;51446;53.850;10.662;2022-12-22T14:27:43;19.80;;;10.37;;
64932;SDS011;51446;53.850;10.662;2022-12-22T14:30:23;23.15;;;10.95;;
64932;SDS011;51446;53.850;10.662;2022-12-22T14:32:52;19.38;;;10.35;;
64932;SDS011;51446;53.850;10.662;2022-12-22T14:37:47;18.37;;;10.70;;
64932;SDS011;51446;53.850;10.662;2022-12-22T14:40:32;20.55;;;9.55;;
64932;SDS011;51446;53.850;10.662;2022-12-22T14:43:02;14.43;;;8.37;;
64932;SDS011;51446;53.850;10.662;2022-12-22T14:45:31;14.75;;;8.05;;
64932;SDS011;51446;53.850;10.662;2022-12-22T14:47:57;18.80;;;8.52;;
64932;SDS011;51446;53.850;10.662;2022-12-22T14:50:23;14.50;;;7.43;;
64932;SDS011;51446;53.850;10.662;2022-12-22T14:52:54;19.38;;;8.02;;
64932;SDS011;51446;53.850;10.662;2022-12-22T14:55:39;15.50;;;8.43;;
64932;SDS011;51446;53.850;10.662;2022-12-22T15:01:10;23.70;;;8.93;;
64932;SDS011;51446;53.850;10.662;2022-12-22T15:06:39;19.05;;;7.85;;
64932;SDS011;51446;53.850;10.662;2022-12-22T15:09:20;16.40;;;7.55;;
64932;SDS011;51446;53.850;10.662;2022-12-22T15:11:53;15.43;;;7.43;;
64932;SDS011;51446;53.850;10.662;2022-12-22T15:14:24;15.87;;;7.30;;
64932;SDS011;51446;53.850;10.662;2022-12-22T15:16:54;14.32;;;7.03;;
64932;SDS011;51446;53.850;10.662;2022-12-22T15:19:21;15.25;;;7.07;;
64932;SDS011;51446;53.850;10.662;2022-12-22T15:21:48;21.35;;;8.00;;
64932;SDS011;51446;53.850;10.662;2022-12-22T15:24:15;21.40;;;9.23;;
64932;SDS011;51446;53.850;10.662;2022-12-22T15:26:41;18.98;;;9.38;;
64932;SDS011;51446;53.850;10.662;2022-12-22T15:29:07;14.18;;;7.28;;
64932;SDS011;51446;53.850;10.662;2022-12-22T15:31:33;21.03;;;7.80;;
64932;SDS011;51446;53.850;10.662;2022-12-22T15:33:59;31.80;;;14.95;;
64932;SDS011;51446;53.850;10.662;2022-12-22T15:36:26;23.85;;;12.68;;
64932;SDS011;51446;53.850;10.662;2022-12-22T15:38:52;13.03;;;7.40;;
64932;SDS011;51446;53.850;10.662;2022-12-22T15:41:17;20.07;;;8.30;;
64932;SDS011;51446;53.850;10.662;2022-12-22T15:43:42;16.97;;;7.73;;
64932;SDS011;51446;53.850;10.662;2022-12-22T15:46:09;20.53;;;7.70;;
64932;SDS011;51446;53.850;10.662;2022-12-22T15:48:38;20.95;;;8.95;;
64932;SDS011;51446;53.850;10.662;2022-12-22T15:51:04;22.70;;;9.17;;
64932;SDS011;51446;53.850;10.662;2022-12-22T15:53:32;21.83;;;10.15;;
64932;SDS011;51446;53.850;10.662;2022-12-22T15:55:58;22.40;;;9.15;;
64932;SDS011;51446;53.850;10.662;2022-12-22T15:58:26;14.90;;;7.70;;
64932;SDS011;51446;53.850;10.662;2022-12-22T16:00:56;16.77;;;8.27;;
64932;SDS011;51446;53.850;10.662;2022-12-22T16:03:22;17.37;;;8.20;;
64932;SDS011;51446;53.850;10.662;2022-12-22T16:05:47;17.60;;;8.33;;
64932;SDS011;51446;53.850;10.662;2022-12-22T16:08:17;22.00;;;10.77;;
64932;SDS011;51446;53.850;10.662;2022-12-22T16:10:46;20.73;;;8.63;;
64932;SDS011;51446;53.850;10.662;2022-12-22T16:13:13;17.95;;;9.20;;
64932;SDS011;51446;53.850;10.662;2022-12-22T16:15:40;15.07;;;8.05;;
64932;SDS011;51446;53.850;10.662;2022-12-22T16:18:06;23.45;;;9.50;;
64932;SDS011;51446;53.850;10.662;2022-12-22T16:20:36;18.53;;;9.30;;
64932;SDS011;51446;53.850;10.662;2022-12-22T16:23:05;19.58;;;9.18;;
64932;SDS011;51446;53.850;10.662;2022-12-22T16:25:37;21.95;;;8.32;;
64932;SDS011;51446;53.850;10.662;2022-12-22T16:28:03;20.93;;;8.50;;